This is the latest recevied weather packets stored in our database for station/object KC4JIR. If no packets are shown the sender has not sent any weather packets the latest 1 day(s).
| Time | Temp. | Humidity | Pressure | Rain* | Wind** | Luminosity | Snow |
|---|---|---|---|---|---|---|---|
| 1778020256 | 28.33° C | 41% | 1011 hPa | 0 mm | 0 m/s | 194 W/m² | - |
| 1778019952 | 28.89° C | 42% | 1011.1 hPa | 0 mm | 0.89 m/s, 260° | 216 W/m² | - |
| 1778019648 | 28.89° C | 40% | 1011 hPa | 0 mm | 0 m/s | 221 W/m² | - |
| 1778019346 | 28.89° C | 41% | 1011.1 hPa | 0 mm | 0.45 m/s, 258° | 237 W/m² | - |
| 1778019042 | 29.44° C | 40% | 1011.3 hPa | 0 mm | 0 m/s | 224 W/m² | - |
| 1778018739 | 28.89° C | 40% | 1011.3 hPa | 0 mm | 0 m/s | 263 W/m² | - |
| 1778018437 | 29.44° C | 39% | 1011.4 hPa | 0 mm | 0.45 m/s, 94° | 291 W/m² | - |
| 1778018135 | 29.44° C | 39% | 1011.1 hPa | 0 mm | 1.34 m/s, 291° | 323 W/m² | - |
| 1778017832 | 28.89° C | 41% | 1011.2 hPa | 0 mm | 0 m/s | 331 W/m² | - |
| 1778017530 | 28.89° C | 42% | 1011.4 hPa | 0 mm | 0.89 m/s, 159° | 327 W/m² | - |
| 1778017227 | 28.89° C | 40% | 1011.4 hPa | 0 mm | 0.45 m/s, 191° | 329 W/m² | - |
| 1778016925 | 29.44° C | 42% | 1011.3 hPa | 0 mm | 1.34 m/s, 179° | 327 W/m² | - |
| 1778016621 | 29.44° C | 41% | 1011.5 hPa | 0 mm | 0.45 m/s, 290° | 357 W/m² | - |
| 1778016317 | 28.89° C | 42% | 1011.6 hPa | 0 mm | 0.89 m/s, 270° | 413 W/m² | - |
| 1778016015 | 28.89° C | 40% | 1011.6 hPa | 0 mm | 0.89 m/s, 143° | 436 W/m² | - |
| 1778015712 | 28.89° C | 43% | 1011.6 hPa | 0 mm | 0.45 m/s, 159° | 447 W/m² | - |
| 1778015408 | 28.89° C | 41% | 1011.3 hPa | 0 mm | 1.34 m/s, 216° | 448 W/m² | - |
| 1778015105 | 29.44° C | 41% | 1011.4 hPa | 0 mm | 0.45 m/s, 17° | 411 W/m² | - |
| 1778014802 | 28.89° C | 43% | 1011.3 hPa | 0 mm | 0.89 m/s, 219° | 467 W/m² | - |
| 1778014500 | 29.44° C | 42% | 1011.3 hPa | 0 mm | 0.45 m/s, 279° | 503 W/m² | - |
| 1778014196 | 28.89° C | 44% | 1011.1 hPa | 0 mm | 0 m/s | 523 W/m² | - |
| 1778013895 | 29.44° C | 42% | 1011.3 hPa | 0 mm | 0.45 m/s, 266° | 264 W/m² | - |
| 1778013592 | 29.44° C | 41% | 1011.4 hPa | 0 mm | 0 m/s | 425 W/m² | - |
| 1778013288 | 28.89° C | 43% | 1011.8 hPa | 0 mm | 0.45 m/s, 302° | 294 W/m² | - |
| 1778012984 | 29.44° C | 41% | 1011.8 hPa | 0 mm | 1.34 m/s, 264° | 390 W/m² | - |
* Rain latest hour (hover to see other rain measurements)
** Current wind speed in m/s (hover to see current wind gust speed)